Aeroporto :
LOGIN :

Iscrizione | Disclaimer

   EN    FR    IT 

 










Sommario :    VFR   VFR Marginale   IFR   IFR Intensivo   IFR Molto Intensivo
Visibilità : 
Base nubi : 
>= 8 km
>= 3000ft
5 / 8 km
1000 / 3000 ft
1500m / 5 km
500 / 1000 ft
800 / 1500m
200 / 500 ft
< 800m
< 200 ft
Simboli :   Temporali  Nebbia  Neve Forte  Precipitazioni Forti  Vento > 20 kt
SIGMETs :   Varie  Temporali  Ghiacco  Turbolenza  Onda orograficha  Ceneri Vulcaniche







- Altitudine del aeroporto : 313 ft
- Codice IATA : LEH
- Carte del aeroporto


LFOH - Le Havre Octeville

ULTIMO METAR :
  • 120500Z AUTO 11011KT 9000 FEW008 BKN120 BKN140 04/02 Q1022

METARs OBSOLETI :
  • 120430Z AUTO 11010KT 9000 NSC 03/02 Q1022
  • 120400Z AUTO 11010KT 9000 NSC 04/02 Q1022
  • 120330Z AUTO 11008KT 9000 NSC 04/02 Q1022
  • 120300Z AUTO 11010KT 9000 NSC 03/02 Q1022
  • 120230Z AUTO 11009KT 8000 NSC 04/02 Q1022

TAF TAF LFOH
Valido dal 11 a 12 ore il 12 a 12 ore UTC


111100Z 1112/1212 14005KT CAVOK
BECMG 1122/1124 OVC006
TEMPO 1200/1209 3000 BR OVC003
BECMG 1209/1212 NSC
ATIS : +33 2 35 54 64 93
Nessun NOTAM noto per questo aeroporto.



MetMap, La meteo Aeronautica in un colpo d'occhio ! - Copyright ORBIFLY Dicembre 2007 - Disclaimer

ORBIFLY MET'MAP TEAM :

Programmazione e sviluppo : Alexandra Zaïnal
Concezione e sviluppo : Baudouin d'Aumeries
Co-Programmazione e sviluppo : Marc-Olivier Méhu
Supporto tecnico e logistico : Manuel Goepfert
Aiuto per la traduzione : Arnaldo La Scala

Contatto : metmap@orbifly.com




FONTI E CREDITI :

   NOAA